Time;durP1;ratioP1;P1;durP2;ratioP2;P2;SDS_P1;SDS_P2;PMS_P1;PMS_P2;Temp;Humidity;BMP_temperature;BMP_pressure;BME280_temperature;BME280_humidity;BME280_pressure;Samples;Min_cycle;Max_cycle;Signal;HPM_P1;HPM_P2
2021/12/05 00:20:45;;;;;;;9.48;6.93;;;22.30;29.10;;;;;;5073489;28;20415;-62
2021/12/05 00:23:00;;;;;;;9.57;6.63;;;22.30;29.20;;;;;;5093557;27;20078;-63
2021/12/05 00:25:30;;;;;;;9.15;6.85;;;22.30;29.20;;;;;;5084471;28;20047;-63
2021/12/05 00:28:38;;;;;;;;;;;22.30;29.20;;;;;;5088255;28;20054;-62
2021/12/05 00:39:36;;;;;;;8.85;7.05;;;22.30;29.20;;;;;;5108441;27;20937;-62
2021/12/05 00:42:20;;;;;;;9.40;6.55;;;22.30;29.20;;;;;;5081776;27;20678;-63
2021/12/05 00:45:20;;;;;;;10.13;7.30;;;22.30;29.20;;;;;;5106240;27;20055;-62
2021/12/05 00:47:46;;;;;;;10.30;7.13;;;22.30;29.20;;;;;;5089089;27;20066;-62
2021/12/05 00:56:21;;;;;;;7.82;6.55;;;22.20;29.20;;;;;;5091934;27;20444;-62
2021/12/05 00:59:09;;;;;;;8.35;6.85;;;22.20;29.20;;;;;;5106779;27;20510;-62
2021/12/05 01:01:47;;;;;;;10.15;7.32;;;22.30;29.30;;;;;;5103385;27;20109;-62
2021/12/05 01:04:36;;;;;;;8.77;6.72;;;22.20;29.20;;;;;;5104742;27;20568;-62
2021/12/05 01:07:12;;;;;;;9.52;7.05;;;22.30;29.30;;;;;;5106595;27;20054;-63
2021/12/05 01:09:51;;;;;;;10.85;7.15;;;22.20;29.20;;;;;;5107214;27;20087;-62
2021/12/05 01:12:43;;;;;;;9.55;7.00;;;22.30;29.30;;;;;;5075559;28;20769;-63
2021/12/05 01:15:09;;;;;;;8.65;6.68;;;22.30;29.30;;;;;;5106045;27;20130;-62
2021/12/05 01:18:08;;;;;;;9.23;6.75;;;22.20;29.20;;;;;;5088597;27;20051;-62
2021/12/05 01:20:39;;;;;;;8.50;6.85;;;22.20;29.30;;;;;;5106097;27;20050;-62
2021/12/05 01:23:22;;;;;;;9.00;6.80;;;22.20;29.30;;;;;;5091914;27;20078;-63
2021/12/05 01:26:02;;;;;;;7.63;6.38;;;22.20;29.30;;;;;;5085912;28;20047;-62
2021/12/05 01:28:49;;;;;;;9.75;7.10;;;22.20;29.30;;;;;;5084435;27;20079;-62
2021/12/05 01:31:32;;;;;;;9.35;7.13;;;22.20;29.30;;;;;;5081589;28;21968;-63
2021/12/05 01:34:20;;;;;;;9.70;7.15;;;22.20;29.30;;;;;;5099269;27;20090;-62
2021/12/05 01:37:08;;;;;;;9.82;7.25;;;22.20;29.30;;;;;;5085608;28;20139;-62
2021/12/05 01:39:50;;;;;;;8.40;6.45;;;22.20;29.30;;;;;;5085254;28;20160;-62
2021/12/05 01:48:30;;;;;;;8.93;6.82;;;22.20;29.40;;;;;;5065203;28;20139;-62
2021/12/05 01:53:52;;;;;;;9.50;7.00;;;22.20;29.40;;;;;;5077428;28;20451;-62
2021/12/05 01:56:44;;;;;;;9.45;6.82;;;22.20;29.40;;;;;;5085718;28;20406;-63
2021/12/05 02:16:18;;;;;;;7.78;6.35;;;22.20;29.40;;;;;;5090677;27;20130;-62
2021/12/05 02:35:52;;;;;;;8.32;6.20;;;22.20;29.50;;;;;;5064559;28;20044;-62
2021/12/05 02:41:10;;;;;;;8.95;6.22;;;22.20;29.50;;;;;;5061736;27;20086;-63
2021/12/05 02:43:45;;;;;;;9.05;6.78;;;22.20;29.50;;;;;;5087379;27;20139;-62
2021/12/05 02:46:16;;;;;;;7.72;5.93;;;22.20;29.50;;;;;;5105447;27;20058;-61
2021/12/05 02:48:44;;;;;;;7.47;5.95;;;22.20;29.50;;;;;;5096660;27;20515;-62
2021/12/05 02:51:17;;;;;;;8.73;6.25;;;22.20;29.50;;;;;;5083813;28;20050;-62
2021/12/05 02:53:53;;;;;;;9.10;6.47;;;22.20;29.50;;;;;;5093547;28;20063;-63
2021/12/05 02:56:24;;;;;;;6.97;5.93;;;22.10;29.50;;;;;;5084105;28;20702;-63
2021/12/05 02:58:54;;;;;;;8.65;6.53;;;22.20;29.50;;;;;;5084534;28;20135;-62
2021/12/05 03:01:41;;;;;;;8.43;6.25;;;22.20;29.50;;;;;;5082855;28;20087;-63
2021/12/05 03:04:09;;;;;;;7.50;5.60;;;22.10;29.50;;;;;;5081590;28;20052;-63
2021/12/05 03:06:38;;;;;;;7.75;6.05;;;22.10;29.50;;;;;;5084773;28;20052;-63
2021/12/05 03:09:13;;;;;;;7.15;5.90;;;22.10;29.50;;;;;;5088217;28;20586;-63
2021/12/05 03:11:42;;;;;;;8.18;6.18;;;22.20;29.60;;;;;;5098710;27;20107;-63
2021/12/05 03:14:09;;;;;;;7.85;5.78;;;22.20;29.60;;;;;;5097371;28;20083;-62
2021/12/05 03:16:39;;;;;;;7.85;6.15;;;22.10;29.60;;;;;;5105924;27;20389;-62
2021/12/05 03:19:08;;;;;;;7.50;5.72;;;22.10;29.60;;;;;;5104931;27;20054;-63
2021/12/05 03:21:37;;;;;;;8.75;6.20;;;22.10;29.60;;;;;;5105413;27;20069;-63
2021/12/05 03:24:05;;;;;;;7.55;5.75;;;22.10;29.60;;;;;;5099077;27;20440;-62
2021/12/05 03:26:36;;;;;;;8.48;5.85;;;22.10;30.00;;;;;;5111184;27;20047;-63
2021/12/05 03:29:06;;;;;;;7.05;5.90;;;22.10;29.60;;;;;;5106326;27;20051;-62
2021/12/05 03:31:34;;;;;;;7.82;6.05;;;22.10;29.60;;;;;;5102019;27;20073;-63
2021/12/05 03:34:05;;;;;;;8.15;5.85;;;22.10;29.60;;;;;;5071418;28;20412;-62
2021/12/05 03:36:32;;;;;;;7.85;5.95;;;22.10;29.60;;;;;;5088997;28;20085;-63
2021/12/05 03:39:02;;;;;;;7.72;5.45;;;22.10;29.60;;;;;;5088041;28;20066;-63
2021/12/05 03:41:30;;;;;;;7.68;5.82;;;22.10;29.60;;;;;;5088777;27;20466;-63
2021/12/05 03:43:59;;;;;;;8.80;5.57;;;22.10;29.60;;;;;;5094963;27;20512;-63
2021/12/05 03:46:28;;;;;;;7.85;6.35;;;22.10;29.60;;;;;;5069820;28;20044;-63
2021/12/05 03:48:59;;;;;;;7.95;5.78;;;22.10;29.60;;;;;;5087965;28;20496;-62
2021/12/05 03:51:30;;;;;;;7.63;5.97;;;22.10;29.60;;;;;;5083938;28;20051;-63
2021/12/05 03:53:57;;;;;;;7.88;5.80;;;22.10;29.60;;;;;;5082792;27;20074;-62
2021/12/05 03:56:25;;;;;;;6.90;5.43;;;22.10;29.60;;;;;;5108108;27;20141;-62
2021/12/05 03:58:53;;;;;;;8.40;6.13;;;22.10;29.70;;;;;;5108840;27;20412;-62
2021/12/05 04:01:24;;;;;;;8.13;5.93;;;22.10;29.60;;;;;;5104909;27;20859;-63
2021/12/05 04:03:53;;;;;;;7.15;4.93;;;22.10;29.70;;;;;;5099003;27;20040;-63
2021/12/05 04:06:23;;;;;;;7.97;5.60;;;22.10;29.70;;;;;;5087786;28;20083;-63
2021/12/05 04:08:51;;;;;;;6.63;5.25;;;22.10;29.70;;;;;;5086955;28;20113;-63
2021/12/05 04:11:28;;;;;;;7.30;5.53;;;22.10;29.70;;;;;;5086465;27;20079;-63
2021/12/05 04:13:56;;;;;;;8.40;6.18;;;22.10;29.70;;;;;;5081707;27;20096;-62
2021/12/05 04:16:24;;;;;;;6.90;5.65;;;22.10;29.70;;;;;;5108514;27;20663;-62
2021/12/05 04:18:51;;;;;;;7.55;5.43;;;22.10;29.70;;;;;;5077659;28;20491;-63
2021/12/05 04:21:20;;;;;;;5.78;4.25;;;22.20;29.70;;;;;;5069174;27;20074;-62
2021/12/05 04:23:48;;;;;;;6.40;5.10;;;22.10;29.60;;;;;;5083543;27;20091;-62
2021/12/05 04:26:17;;;;;;;8.52;5.93;;;22.10;29.60;;;;;;5107232;27;20055;-62
2021/12/05 04:28:46;;;;;;;8.93;5.97;;;22.10;29.70;;;;;;5107630;27;20100;-62
2021/12/05 04:31:16;;;;;;;7.75;5.10;;;22.10;29.70;;;;;;5105181;27;20047;-63
2021/12/05 04:33:43;;;;;;;7.10;5.85;;;22.10;29.70;;;;;;5102701;27;20051;-63
2021/12/05 04:36:10;;;;;;;6.57;5.88;;;22.10;29.70;;;;;;5107359;27;20047;-62
2021/12/05 04:38:38;;;;;;;8.10;5.07;;;22.10;29.70;;;;;;5108163;27;20146;-63
2021/12/05 04:41:05;;;;;;;6.90;5.13;;;22.10;29.70;;;;;;5103565;27;20048;-63
2021/12/05 04:43:38;;;;;;;7.70;6.00;;;22.10;29.70;;;;;;5102284;27;20075;-63
2021/12/05 04:46:11;;;;;;;7.20;5.55;;;22.10;29.70;;;;;;5086985;28;20051;-62
2021/12/05 04:48:40;;;;;;;6.55;4.97;;;22.10;29.70;;;;;;5086820;28;20138;-62
2021/12/05 04:51:08;;;;;;;6.05;5.10;;;22.10;29.80;;;;;;5084324;27;20047;-63
2021/12/05 04:53:36;;;;;;;6.38;4.97;;;22.10;29.80;;;;;;5097908;27;20055;-63
2021/12/05 04:56:04;;;;;;;6.78;5.10;;;22.10;29.80;;;;;;5088958;27;20479;-62
2021/12/05 04:58:31;;;;;;;5.80;4.88;;;22.10;29.80;;;;;;5103874;27;20052;-62
2021/12/05 05:01:00;;;;;;;6.40;4.70;;;22.10;29.80;;;;;;5058472;27;20040;-63
2021/12/05 05:03:28;;;;;;;6.68;5.30;;;22.10;29.80;;;;;;5089088;27;20158;-62
2021/12/05 05:06:08;;;;;;;5.65;4.65;;;22.10;29.80;;;;;;5079471;28;20052;-62
2021/12/05 05:08:35;;;;;;;5.63;4.75;;;22.10;29.80;;;;;;5091996;27;20063;-63
2021/12/05 05:11:06;;;;;;;8.10;5.45;;;22.10;29.80;;;;;;5075442;27;20101;-64
2021/12/05 05:13:35;;;;;;;6.30;5.15;;;22.10;29.80;;;;;;5086054;27;20428;-61
2021/12/05 05:16:04;;;;;;;5.93;4.82;;;22.00;29.70;;;;;;5111491;27;20133;-62
2021/12/05 05:18:47;;;;;;;5.88;4.72;;;22.00;29.80;;;;;;5106611;27;20058;-61
2021/12/05 05:24:27;;;;;;;4.82;4.20;;;22.10;29.80;;;;;;5090209;27;20074;-61
2021/12/05 05:27:25;;;;;;;7.10;4.57;;;22.00;29.80;;;;;;5094958;27;20051;-62
2021/12/05 05:41:07;;;;;;;6.35;5.15;;;22.00;29.80;;;;;;5088756;28;20909;-62
2021/12/05 05:43:52;;;;;;;7.22;4.80;;;22.00;29.80;;;;;;5096221;27;20078;-62
2021/12/05 05:49:24;;;;;;;8.02;5.55;;;22.10;29.90;;;;;;5110201;27;20085;-62
2021/12/05 05:51:51;;;;;;;5.15;4.13;;;22.10;29.90;;;;;;5100597;27;20080;-62
2021/12/05 05:54:19;;;;;;;6.55;4.57;;;22.00;29.90;;;;;;5080255;27;20090;-62
2021/12/05 05:56:48;;;;;;;5.90;4.53;;;22.00;29.90;;;;;;5083815;28;20068;-63
2021/12/05 05:59:24;;;;;;;6.22;4.70;;;22.00;29.90;;;;;;5084321;28;20538;-62
2021/12/05 06:03:19;;;;;;;4.65;4.20;;;22.10;29.90;;;;;;5085539;27;20051;-62
2021/12/05 06:04:40;;;;;;;5.50;4.43;;;22.10;29.90;;;;;;5102394;27;20137;-62
2021/12/05 06:07:08;;;;;;;4.75;4.25;;;22.10;30.00;;;;;;5105629;28;20137;-62
2021/12/05 06:09:35;;;;;;;6.78;5.00;;;22.00;29.90;;;;;;5104103;28;20395;-62
2021/12/05 06:12:03;;;;;;;6.13;4.70;;;22.10;29.90;;;;;;5081456;28;20146;-62
2021/12/05 06:14:30;;;;;;;5.97;4.55;;;22.00;29.90;;;;;;5102276;28;20051;-62
2021/12/05 06:16:58;;;;;;;9.05;5.90;;;22.10;29.90;;;;;;5104571;27;20176;-61
2021/12/05 06:19:25;;;;;;;6.55;5.32;;;22.00;29.90;;;;;;5105012;28;20051;-62
2021/12/05 06:21:53;;;;;;;7.32;5.43;;;22.00;29.80;;;;;;5099228;27;20079;-62
2021/12/05 06:24:23;;;;;;;6.57;5.20;;;22.10;29.90;;;;;;5092006;28;20167;-62
2021/12/05 06:26:50;;;;;;;7.25;5.57;;;22.10;29.80;;;;;;5084025;28;20113;-63
2021/12/05 06:29:21;;;;;;;6.93;5.40;;;22.10;29.80;;;;;;5083487;28;20047;-62
2021/12/05 06:32:04;;;;;;;7.47;5.47;;;22.20;29.80;;;;;;5085556;27;20062;-62
2021/12/05 06:37:33;;;;;;;7.30;5.63;;;22.20;29.60;;;;;;5089705;28;20130;-61
2021/12/05 06:40:22;;;;;;;7.25;6.10;;;22.30;29.60;;;;;;5104076;28;20252;-62
2021/12/05 06:43:01;;;;;;;7.55;5.97;;;22.30;29.60;;;;;;5081531;28;20670;-62
2021/12/05 06:48:16;;;;;;;7.47;5.97;;;22.50;29.50;;;;;;5104249;28;20147;-62
2021/12/05 06:50:43;;;;;;;8.05;5.85;;;22.50;29.50;;;;;;5103843;28;20065;-62
2021/12/05 06:53:10;;;;;;;7.35;5.45;;;22.60;29.50;;;;;;5093311;27;20101;-62
2021/12/05 06:55:38;;;;;;;8.15;6.13;;;22.60;29.40;;;;;;5083415;27;20104;-62
2021/12/05 06:58:10;;;;;;;7.50;5.80;;;22.70;29.50;;;;;;5083794;28;20051;-62
2021/12/05 07:00:37;;;;;;;6.72;5.90;;;22.70;29.40;;;;;;5065936;28;20641;-62
2021/12/05 07:03:07;;;;;;;6.82;5.53;;;22.80;29.40;;;;;;5088618;28;20138;-62
2021/12/05 07:05:46;;;;;;;7.72;5.97;;;22.80;29.30;;;;;;5020233;28;2095262;-61
2021/12/05 07:08:15;;;;;;;6.90;5.55;;;22.80;29.30;;;;;;5081952;28;20519;-62
2021/12/05 07:10:51;;;;;;;6.93;5.43;;;22.90;29.30;;;;;;5084427;28;20075;-62
2021/12/05 07:16:21;;;;;;;8.93;5.75;;;23.00;29.20;;;;;;5056037;28;20411;-62
2021/12/05 07:19:08;;;;;;;7.63;5.97;;;23.00;29.20;;;;;;5083485;28;20094;-62
2021/12/05 07:21:47;;;;;;;6.75;5.70;;;23.00;29.10;;;;;;5080139;28;20054;-63
2021/12/05 07:24:29;;;;;;;7.75;6.35;;;23.10;29.10;;;;;;5077129;28;20051;-62
2021/12/05 07:40:18;;;;;;;7.15;6.30;;;23.10;29.10;;;;;;5085613;28;20447;-60
2021/12/05 07:40:53;;;;;;;10.63;7.55;;;23.40;29.50;;;;;;5083272;28;20134;-62
2021/12/05 07:43:21;;;;;;;8.90;7.15;;;23.40;28.90;;;;;;5097647;28;20529;-63
2021/12/05 07:45:55;;;;;;;9.35;7.63;;;23.40;28.90;;;;;;5104173;28;20120;-62
2021/12/05 07:48:29;;;;;;;8.52;6.85;;;23.50;28.90;;;;;;5104741;28;20157;-62
2021/12/05 07:51:11;;;;;;;10.68;8.55;;;23.50;28.90;;;;;;5073646;28;20575;-62
2021/12/05 07:53:51;;;;;;;11.07;7.70;;;23.50;28.80;;;;;;5057980;28;20143;-62
2021/12/05 07:56:28;;;;;;;8.93;7.07;;;23.60;28.80;;;;;;5087650;28;20101;-62
2021/12/05 07:59:13;;;;;;;8.77;7.07;;;23.60;28.80;;;;;;5084389;28;20130;-62
2021/12/05 08:15:46;;;;;;;8.07;6.95;;;23.80;28.80;;;;;;5107748;27;20047;-62
2021/12/05 08:18:13;;;;;;;9.55;7.68;;;23.80;28.70;;;;;;5108128;27;20070;-62
2021/12/05 08:20:43;;;;;;;7.57;6.65;;;23.80;28.70;;;;;;5108270;27;20523;-62
2021/12/05 08:23:13;;;;;;;6.43;5.78;;;23.90;28.80;;;;;;5093080;27;20138;-62
2021/12/05 08:25:46;;;;;;;7.68;6.10;;;23.90;28.70;;;;;;5068753;28;20058;-62
2021/12/05 08:28:26;;;;;;;7.85;6.35;;;23.90;28.70;;;;;;5088377;28;20040;-62
2021/12/05 08:31:09;;;;;;;8.75;6.75;;;23.90;28.80;;;;;;5083090;28;20055;-63
2021/12/05 08:34:43;;;;;;;7.20;6.18;;;24.00;28.70;;;;;;5088084;27;20082;-62
2021/12/05 08:37:01;;;;;;;8.05;6.50;;;23.90;28.60;;;;;;5107511;27;20136;-62
2021/12/05 08:42:29;;;;;;;8.07;5.95;;;24.00;29.00;;;;;;5101934;27;20096;-62
2021/12/05 09:24:23;;;;;;;7.22;6.10;;;24.20;28.40;;;;;;5097469;27;20054;-63
2021/12/05 09:27:11;;;;;;;6.72;5.68;;;24.20;28.40;;;;;;5085931;28;20052;-63
2021/12/05 09:30:04;;;;;;;7.60;6.03;;;24.30;28.50;;;;;;5102692;27;20507;-63
2021/12/05 10:09:28;;;;;;;4.88;4.47;;;24.50;28.30;;;;;;5086565;28;20097;-62
2021/12/05 10:18:02;;;;;;;5.80;5.18;;;24.40;28.20;;;;;;5105739;27;20057;-63
2021/12/05 10:26:40;;;;;;;5.45;4.95;;;24.40;28.30;;;;;;5098817;27;20075;-62
2021/12/05 10:35:42;;;;;;;5.88;5.07;;;24.40;28.30;;;;;;5105020;27;20100;-63
2021/12/05 10:38:06;;;;;;;4.68;4.28;;;24.40;28.30;;;;;;5105474;27;20092;-63
2021/12/05 10:40:43;;;;;;;4.97;4.30;;;24.40;28.30;;;;;;5105104;27;20199;-62
2021/12/05 10:43:20;;;;;;;4.90;4.43;;;24.40;28.30;;;;;;5094721;27;20408;-62
2021/12/05 10:45:54;;;;;;;3.97;3.67;;;24.40;28.30;;;;;;5090771;27;20050;-62
2021/12/05 10:48:29;;;;;;;5.32;4.60;;;24.40;28.30;;;;;;5105572;27;20051;-62
2021/12/05 10:51:07;;;;;;;6.07;5.13;;;24.40;28.30;;;;;;5103589;27;20055;-62
2021/12/05 10:53:44;;;;;;;5.43;4.93;;;24.40;28.30;;;;;;5076774;28;20184;-63
2021/12/05 10:56:16;;;;;;;4.70;4.30;;;24.40;28.30;;;;;;5085131;28;20454;-62
2021/12/05 10:58:48;;;;;;;5.15;4.65;;;24.40;28.30;;;;;;5067133;28;20112;-63
2021/12/05 11:01:40;;;;;;;4.80;4.22;;;24.40;28.30;;;;;;5085029;28;20851;-62
2021/12/05 11:04:11;;;;;;;4.93;4.53;;;24.40;28.30;;;;;;5077977;28;20044;-62
2021/12/05 11:06:53;;;;;;;5.03;4.53;;;24.40;28.30;;;;;;5085400;28;20411;-62
2021/12/05 11:09:30;;;;;;;4.68;4.22;;;24.50;28.30;;;;;;5069213;28;21110;-63
2021/12/05 11:12:14;;;;;;;4.45;4.05;;;24.40;28.30;;;;;;5086587;28;20108;-62
2021/12/05 11:14:55;;;;;;;4.78;4.38;;;24.50;28.30;;;;;;5102371;28;20155;-62
2021/12/05 11:17:25;;;;;;;3.80;3.45;;;24.50;28.20;;;;;;5063834;28;20102;-63
2021/12/05 11:19:58;;;;;;;4.03;3.63;;;24.50;28.20;;;;;;5067502;28;20110;-63
2021/12/05 11:22:30;;;;;;;4.78;4.28;;;24.50;28.20;;;;;;5078400;28;20112;-63
2021/12/05 11:25:00;;;;;;;5.75;4.50;;;24.50;28.60;;;;;;5093376;28;20122;-63
2021/12/05 11:27:31;;;;;;;;;;;24.50;28.20;;;;;;5085369;28;20055;-63
2021/12/05 11:30:05;;;;;;;4.05;3.70;;;24.50;28.20;;;;;;5083906;28;19973;-63
2021/12/05 11:32:56;;;;;;;4.65;4.22;;;24.50;28.10;;;;;;5089376;28;20070;-63
2021/12/05 11:35:37;;;;;;;3.83;3.50;;;24.50;28.20;;;;;;5104011;28;20135;-63
2021/12/05 11:38:28;;;;;;;4.25;3.90;;;24.50;28.20;;;;;;5104540;28;20476;-63
2021/12/05 11:41:03;;;;;;;4.30;3.90;;;24.50;28.20;;;;;;5105105;27;20123;-63
2021/12/05 11:43:46;;;;;;;4.65;4.07;;;24.50;28.20;;;;;;5103385;27;20102;-63
2021/12/05 11:46:32;;;;;;;3.85;3.47;;;24.50;28.20;;;;;;5089351;27;20087;-63
2021/12/05 11:49:10;;;;;;;4.18;3.78;;;24.60;28.20;;;;;;5088826;28;20043;-62
2021/12/05 11:51:56;;;;;;;3.90;3.60;;;24.60;28.20;;;;;;5085581;27;20131;-63
2021/12/05 11:54:36;;;;;;;4.22;3.90;;;24.60;28.20;;;;;;5101507;27;20047;-63
2021/12/05 11:57:24;;;;;;;4.63;4.15;;;24.60;28.20;;;;;;5107661;27;20054;-63
2021/12/05 11:59:56;;;;;;;3.78;3.42;;;24.60;28.10;;;;;;5108421;27;20054;-63
2021/12/05 12:02:34;;;;;;;4.03;3.70;;;24.60;28.10;;;;;;5100466;27;20458;-63
2021/12/05 12:05:07;;;;;;;3.78;3.47;;;24.70;28.10;;;;;;5107714;27;20082;-63
2021/12/05 12:07:43;;;;;;;4.22;3.83;;;24.70;28.10;;;;;;5108303;27;20134;-62
2021/12/05 12:10:22;;;;;;;4.07;3.72;;;24.70;28.10;;;;;;5098527;27;20488;-61
2021/12/05 12:12:54;;;;;;;3.53;3.23;;;24.70;28.20;;;;;;5095234;27;20648;-62
2021/12/05 12:15:23;;;;;;;3.72;3.40;;;24.70;28.20;;;;;;5091484;27;20050;-62
2021/12/05 12:17:51;;;;;;;3.70;3.40;;;24.70;28.20;;;;;;5107710;27;20079;-61
2021/12/05 12:20:23;;;;;;;3.63;3.33;;;24.70;28.20;;;;;;5109682;27;20561;-62
2021/12/05 12:22:55;;;;;;;3.40;3.10;;;24.60;28.10;;;;;;5099990;27;20507;-62
2021/12/05 12:25:31;;;;;;;3.53;3.22;;;24.70;28.20;;;;;;5089305;27;20600;-61
2021/12/05 12:27:58;;;;;;;3.60;3.30;;;24.70;28.20;;;;;;5086880;28;20130;-62
2021/12/05 12:30:29;;;;;;;3.97;3.65;;;24.70;28.20;;;;;;5068933;28;20451;-62
2021/12/05 12:33:13;;;;;;;4.53;3.50;;;24.70;28.20;;;;;;5096687;27;20483;-63
2021/12/05 12:35:46;;;;;;;3.92;3.58;;;24.70;28.20;;;;;;5088694;27;20055;-62
2021/12/05 12:38:17;;;;;;;3.92;3.60;;;24.70;28.20;;;;;;5107882;27;20039;-63
2021/12/05 12:40:54;;;;;;;4.13;3.50;;;24.70;28.20;;;;;;5088143;27;20085;-63
2021/12/05 12:43:43;;;;;;;3.58;3.28;;;24.70;28.20;;;;;;5099083;27;20047;-63
2021/12/05 12:46:20;;;;;;;4.25;3.78;;;24.70;28.20;;;;;;5076770;28;20048;-63
2021/12/05 12:48:54;;;;;;;4.13;3.72;;;24.70;28.20;;;;;;5086987;28;20079;-62
2021/12/05 12:51:38;;;;;;;4.10;3.65;;;24.70;28.20;;;;;;5068559;27;20082;-63
2021/12/05 12:54:17;;;;;;;3.90;3.60;;;24.70;28.20;;;;;;5086593;27;20439;-63
2021/12/05 12:57:20;;;;;;;4.00;3.70;;;24.70;28.20;;;;;;5107036;27;20046;-63
2021/12/05 13:00:04;;;;;;;3.88;3.53;;;24.70;28.20;;;;;;5108178;27;20084;-63
2021/12/05 13:03:01;;;;;;;3.60;3.30;;;24.70;28.20;;;;;;5084232;27;20554;-63
2021/12/05 13:07:16;;;;;;;3.55;3.25;;;24.70;28.60;;;;;;5106289;27;20138;-62
2021/12/05 13:11:19;;;;;;;3.80;3.45;;;24.70;28.10;;;;;;5085124;27;20142;-63
2021/12/05 13:13:59;;;;;;;3.97;3.67;;;24.70;28.20;;;;;;5097160;27;20845;-63
2021/12/05 13:16:31;;;;;;;3.75;3.35;;;24.70;28.20;;;;;;5106479;27;20085;-63
2021/12/05 13:19:09;;;;;;;4.35;3.97;;;24.70;28.20;;;;;;5106870;27;20051;-63
2021/12/05 13:21:42;;;;;;;3.83;3.45;;;24.70;28.20;;;;;;5102954;27;20039;-63
2021/12/05 13:24:27;;;;;;;4.32;3.92;;;24.70;28.20;;;;;;5089025;27;20142;-63
2021/12/05 13:27:01;;;;;;;3.35;3.13;;;24.70;28.20;;;;;;5106720;27;20450;-63
2021/12/05 13:29:31;;;;;;;3.70;3.40;;;24.70;28.20;;;;;;5088482;27;20141;-63
2021/12/05 13:32:12;;;;;;;4.18;3.80;;;24.70;28.20;;;;;;5100712;27;20062;-65
2021/12/05 13:34:46;;;;;;;3.67;3.38;;;24.70;28.20;;;;;;5066576;28;20048;-63
2021/12/05 13:37:24;;;;;;;4.15;3.75;;;24.70;28.20;;;;;;5086213;28;20047;-62
2021/12/05 13:40:16;;;;;;;4.28;3.95;;;24.60;28.20;;;;;;5085613;28;20071;-63
2021/12/05 13:42:52;;;;;;;3.55;3.25;;;24.70;28.30;;;;;;5086794;27;20104;-63
2021/12/05 13:45:29;;;;;;;3.67;3.38;;;24.60;28.30;;;;;;5106125;27;20138;-63
2021/12/05 13:48:18;;;;;;;4.18;3.78;;;24.60;28.30;;;;;;5087586;27;20047;-63
2021/12/05 13:50:55;;;;;;;4.15;3.75;;;24.60;28.30;;;;;;5106252;27;20541;-62
2021/12/05 13:53:29;;;;;;;4.75;3.85;;;24.60;28.30;;;;;;5093092;27;20075;-63
2021/12/05 13:56:03;;;;;;;3.97;3.60;;;24.60;28.30;;;;;;5085926;28;20545;-63
2021/12/05 13:58:41;;;;;;;4.18;3.78;;;24.50;28.30;;;;;;5085306;28;20047;-63
2021/12/05 14:01:32;;;;;;;3.65;3.35;;;24.50;28.30;;;;;;5084088;27;20058;-63
2021/12/05 14:04:25;;;;;;;3.65;3.35;;;24.50;28.30;;;;;;5100716;27;20051;-63
2021/12/05 14:07:06;;;;;;;4.45;4.05;;;24.50;28.30;;;;;;5087034;27;20520;-63
2021/12/05 14:09:47;;;;;;;3.55;3.25;;;24.50;28.30;;;;;;5105332;27;20063;-63
2021/12/05 14:12:31;;;;;;;4.30;3.90;;;24.50;28.30;;;;;;5081459;27;20079;-63
2021/12/05 14:15:02;;;;;;;4.28;3.88;;;24.50;28.30;;;;;;5097211;27;20894;-63
2021/12/05 14:17:40;;;;;;;4.80;3.80;;;24.50;28.40;;;;;;5067088;28;20051;-63
2021/12/05 14:20:15;;;;;;;4.22;3.83;;;24.50;28.40;;;;;;5085362;28;20570;-64
2021/12/05 14:22:48;;;;;;;3.83;3.50;;;24.50;28.40;;;;;;5069837;27;20055;-63
2021/12/05 14:25:19;;;;;;;4.07;3.67;;;24.50;28.40;;;;;;5105604;27;20136;-63
2021/12/05 14:27:51;;;;;;;3.97;3.67;;;24.50;28.40;;;;;;5105295;27;20507;-63
2021/12/05 14:30:21;;;;;;;4.15;3.63;;;24.50;28.40;;;;;;5104982;27;20079;-61
2021/12/05 14:32:57;;;;;;;3.55;3.25;;;24.50;28.40;;;;;;5098206;27;20046;-62
2021/12/05 14:35:32;;;;;;;3.50;3.20;;;24.50;28.40;;;;;;5108370;27;20055;-62
2021/12/05 14:38:02;;;;;;;4.05;3.55;;;24.50;28.40;;;;;;5082444;28;20051;-62
2021/12/05 14:40:31;;;;;;;3.78;3.47;;;24.50;28.30;;;;;;5085840;28;20106;-62
2021/12/05 14:43:08;;;;;;;4.53;4.13;;;24.50;28.30;;;;;;5077271;28;20058;-62
2021/12/05 14:45:39;;;;;;;3.70;3.40;;;24.60;28.30;;;;;;5107371;27;20096;-62
2021/12/05 14:48:10;;;;;;;4.65;3.58;;;24.60;28.30;;;;;;5107635;27;20050;-62
2021/12/05 14:50:51;;;;;;;4.30;3.90;;;24.60;28.30;;;;;;5107034;27;20059;-62
2021/12/05 14:53:19;;;;;;;3.60;3.30;;;24.60;28.20;;;;;;5096616;27;20053;-62
2021/12/05 14:55:48;;;;;;;4.15;3.85;;;24.70;28.30;;;;;;5087373;28;20138;-62
2021/12/05 14:58:16;;;;;;;3.92;3.53;;;24.70;28.30;;;;;;5074889;28;20051;-63
2021/12/05 15:00:49;;;;;;;3.90;3.60;;;24.70;28.20;;;;;;5065561;28;20503;-62
2021/12/05 15:03:26;;;;;;;3.92;3.53;;;24.70;28.30;;;;;;5076770;28;20129;-62
2021/12/05 15:05:57;;;;;;;3.72;3.42;;;24.70;28.20;;;;;;5084360;28;20484;-62
2021/12/05 15:08:29;;;;;;;4.00;3.60;;;24.70;28.20;;;;;;5084331;28;20044;-62
2021/12/05 15:11:00;;;;;;;4.07;3.67;;;24.60;28.20;;;;;;5082969;28;20055;-62
2021/12/05 15:13:27;;;;;;;4.38;3.97;;;24.60;28.20;;;;;;5083452;28;20048;-62
2021/12/05 15:15:57;;;;;;;3.85;3.55;;;24.60;28.20;;;;;;5085948;28;20777;-62
2021/12/05 15:18:29;;;;;;;3.70;3.40;;;24.60;28.20;;;;;;5089755;28;20086;-62
2021/12/05 15:20:58;;;;;;;3.42;3.13;;;24.60;28.20;;;;;;5092351;27;20043;-62
2021/12/05 15:23:31;;;;;;;3.50;3.20;;;24.60;28.30;;;;;;5105225;27;20047;-62
2021/12/05 15:26:01;;;;;;;4.13;3.70;;;24.60;28.20;;;;;;5089403;27;20130;-62
2021/12/05 15:28:29;;;;;;;4.10;3.70;;;24.50;28.20;;;;;;5094371;27;20112;-62
2021/12/05 15:30:56;;;;;;;3.70;3.40;;;24.50;28.20;;;;;;5105540;27;20492;-64
2021/12/05 15:33:25;;;;;;;4.20;3.80;;;24.50;28.20;;;;;;5101952;27;20081;-62
2021/12/05 15:35:55;;;;;;;3.58;3.28;;;24.50;28.20;;;;;;5109017;27;20043;-62
2021/12/05 15:38:27;;;;;;;3.45;3.15;;;24.50;28.30;;;;;;5091007;27;20599;-62
2021/12/05 15:41:00;;;;;;;3.90;3.60;;;24.50;28.30;;;;;;5104993;27;20133;-63
2021/12/05 15:43:31;;;;;;;3.85;3.00;;;24.50;28.30;;;;;;5086426;28;20488;-63
2021/12/05 15:45:58;;;;;;;3.67;3.38;;;24.50;28.30;;;;;;5107783;27;20051;-62
2021/12/05 15:48:29;;;;;;;3.58;3.25;;;24.50;28.30;;;;;;5108213;27;20043;-62
2021/12/05 15:51:00;;;;;;;3.67;3.38;;;24.50;28.30;;;;;;5108482;27;20050;-62
2021/12/05 15:53:30;;;;;;;4.22;3.83;;;24.50;28.30;;;;;;5098001;27;20051;-61
2021/12/05 15:56:00;;;;;;;4.07;3.55;;;24.50;28.30;;;;;;5109496;27;20055;-61
2021/12/05 15:58:38;;;;;;;3.95;3.63;;;24.50;28.30;;;;;;5092046;27;20116;-62
2021/12/05 16:01:12;;;;;;;3.80;3.50;;;24.50;28.30;;;;;;5103963;27;20111;-62
2021/12/05 16:03:43;;;;;;;4.00;3.67;;;24.50;28.30;;;;;;5092563;27;20488;-62
2021/12/05 16:06:15;;;;;;;4.00;3.60;;;24.50;28.30;;;;;;5087255;28;20497;-62
2021/12/05 16:08:46;;;;;;;3.67;3.38;;;24.40;28.30;;;;;;5087680;28;20047;-62
2021/12/05 16:11:14;;;;;;;;;;;24.40;28.30;;;;;;5087342;27;20514;-62
2021/12/05 16:13:43;;;;;;;3.88;3.58;;;24.40;28.30;;;;;;5085483;27;20026;-62
2021/12/05 16:16:23;;;;;;;3.72;3.42;;;24.40;28.30;;;;;;5097110;27;20074;-62
2021/12/05 16:18:55;;;;;;;3.83;3.42;;;24.40;28.30;;;;;;5087213;28;20134;-62
2021/12/05 16:21:28;;;;;;;3.75;3.45;;;24.40;28.30;;;;;;5082850;27;20048;-62
2021/12/05 16:24:03;;;;;;;3.92;3.63;;;24.40;28.80;;;;;;5091696;27;20134;-62
2021/12/05 16:26:30;;;;;;;3.63;3.38;;;24.40;28.30;;;;;;5086462;28;20154;-61
2021/12/05 16:29:05;;;;;;;3.97;3.67;;;24.40;28.40;;;;;;5082838;28;20085;-62
2021/12/05 16:31:37;;;;;;;3.20;2.90;;;24.40;28.30;;;;;;5071060;27;20059;-61
2021/12/05 16:34:09;;;;;;;3.42;3.13;;;24.40;28.30;;;;;;5095692;27;20047;-64
2021/12/05 16:36:43;;;;;;;3.33;3.05;;;24.40;28.30;;;;;;5108852;27;20055;-63
2021/12/05 16:39:20;;;;;;;3.88;3.58;;;24.40;28.30;;;;;;5104169;27;20051;-63
2021/12/05 16:41:51;;;;;;;3.63;3.30;;;24.40;28.30;;;;;;5100684;27;20093;-62
2021/12/05 16:44:24;;;;;;;3.88;3.50;;;24.40;28.30;;;;;;5073614;28;20079;-62
2021/12/05 16:46:55;;;;;;;3.70;3.40;;;24.40;28.30;;;;;;5087403;28;20059;-62
2021/12/05 16:49:26;;;;;;;3.92;3.63;;;24.40;28.30;;;;;;5086362;28;20453;-62
2021/12/05 16:52:14;;;;;;;4.18;3.83;;;24.40;28.30;;;;;;5068360;27;20146;-62
2021/12/05 16:54:54;;;;;;;3.70;3.40;;;24.40;28.30;;;;;;5099598;27;20134;-62
2021/12/05 16:57:28;;;;;;;;;;;24.40;28.30;;;;;;5087183;28;20053;-62
2021/12/05 16:59:58;;;;;;;3.88;3.58;;;24.40;28.30;;;;;;5087377;28;19967;-62
2021/12/05 17:02:28;;;;;;;3.90;3.53;;;24.40;28.30;;;;;;5090845;27;20710;-62
2021/12/05 17:05:13;;;;;;;4.15;3.75;;;24.40;28.30;;;;;;5087746;27;20051;-62
2021/12/05 17:07:54;;;;;;;4.00;3.60;;;24.40;28.40;;;;;;5086981;28;20086;-63
2021/12/05 17:11:02;;;;;;;3.50;3.17;;;24.40;28.40;;;;;;5071950;28;20105;-62
2021/12/05 17:13:50;;;;;;;3.90;3.60;;;24.40;28.40;;;;;;5079511;28;20087;-62
2021/12/05 17:16:22;;;;;;;3.95;3.55;;;24.40;28.50;;;;;;5086925;28;20707;-62
2021/12/05 17:19:06;;;;;;;3.60;3.30;;;24.40;28.50;;;;;;5089862;27;20048;-62